YKZ weather

Buttonville Municipal Airport
Toronto, Ontario, Canada

Public forecast

Using degrees Celsius for public forecast. Weather courtesy of forecast.io.

METAR (pilot weather report)

Retrieved 2018/02/25 05:00 UTC (41 minutes ago):

CYKZ 250500Z 10017G23KT 15SM FEW010 BKN110 OVC140 01/M02 A3006 RMK CF1AC5AS2 SLP187

TAF (pilot weather forecast)

Forecast is more than 12 hours old.

Retrieved 2018/02/24 00:39 UTC (1 day ago):

TAF CYKZ 242338Z 2500/2512 07006KT P6SM SCT120 BKN240 FM250400 08012KT P6SM OVC100 FM250600 08015KT P6SM -FZRA BKN015 OVC050 TEMPO 2506/2508 3SM -RA BR OVC006 FM250800 08018KT 11/2SM RA BR OVC004 TEMPO 2508/2512 3SM -RA BR OVC006 RMK NXT FCST BY 250600Z